Time;durP1;ratioP1;P1;durP2;ratioP2;P2;SDS_P1;SDS_P2;PMS_P1;PMS_P2;Temp;Humidity;BMP_temperature;BMP_pressure;BME280_temperature;BME280_humidity;BME280_pressure;Samples;Min_cycle;Max_cycle;Signal;HPM_P1;HPM_P2
2023/09/09 00:01:46;;;;;;;6.82;1.80;;;;;;;25.75;100.00;99850.16;7398677;19;20042;-53
2023/09/09 00:04:13;;;;;;;4.00;1.48;;;;;;;23.43;100.00;99848.75;7398278;19;20019;-53
2023/09/09 00:06:40;;;;;;;3.75;1.38;;;;;;;22.85;100.00;99845.88;7399722;19;20010;-53
2023/09/09 00:09:06;;;;;;;3.40;1.55;;;;;;;33.22;100.00;99836.28;7399794;19;20335;-54
2023/09/09 00:11:32;;;;;;;4.25;1.65;;;;;;;37.15;77.09;99839.03;7400134;19;20329;-54
2023/09/09 00:13:58;;;;;;;1.98;1.27;;;;;;;38.15;69.36;99834.91;7398474;19;20033;-54
2023/09/09 00:16:24;;;;;;;3.05;0.82;;;;;;;38.60;65.30;99835.09;7401405;19;20035;-54
2023/09/09 00:18:52;;;;;;;2.05;1.27;;;;;;;38.86;62.93;99824.38;7398184;19;20045;-54
2023/09/09 00:21:18;;;;;;;3.22;1.50;;;;;;;39.10;61.02;99824.41;7399131;19;20011;-54
2023/09/09 00:23:44;;;;;;;4.40;1.70;;;;;;;39.35;59.21;99832.56;7398923;19;20017;-54
2023/09/09 00:26:10;;;;;;;1.65;0.98;;;;;;;39.37;57.88;99827.50;7403121;19;20384;-54
2023/09/09 00:28:37;;;;;;;16.73;1.50;;;;;;;39.43;57.37;99826.97;7398704;19;20074;-54
2023/09/09 00:31:03;;;;;;;3.60;1.45;;;;;;;39.57;56.13;99824.50;7398553;19;20011;-54
2023/09/09 00:33:30;;;;;;;3.25;0.98;;;;;;;39.68;55.47;99823.38;7398670;19;20482;-53
2023/09/09 00:35:59;;;;;;;3.47;1.13;;;;;;;39.53;55.08;99811.97;7402638;19;20014;-54
2023/09/09 00:38:25;;;;;;;3.28;1.20;;;;;;;39.40;54.93;99816.66;7396032;19;20368;-53
2023/09/09 00:41:11;;;;;;;2.63;1.27;;;;;;;39.24;54.62;99813.25;7397057;19;20010;-53
2023/09/09 00:43:38;;;;;;;2.80;1.17;;;;;;;39.33;54.57;99817.91;7398751;19;20482;-53
2023/09/09 00:46:08;;;;;;;1.70;1.25;;;;;;;39.24;54.04;99827.81;7401905;19;20698;-53
2023/09/09 00:48:38;;;;;;;2.37;1.20;;;;;;;39.22;53.94;99822.66;7398587;19;20761;-53
2023/09/09 00:51:05;;;;;;;2.28;1.02;;;;;;;38.49;54.89;99821.59;7398960;19;20006;-53
2023/09/09 00:53:32;;;;;;;8.25;1.48;;;;;;;38.48;54.38;99817.97;7398830;19;20015;-53
2023/09/09 00:56:00;;;;;;;4.85;1.83;;;;;;;25.86;100.00;99830.47;7401945;19;20011;-53
2023/09/09 00:58:30;;;;;;;4.65;1.67;;;;;;;24.33;100.00;99830.22;7398905;19;20032;-53
2023/09/09 01:00:57;;;;;;;3.33;1.65;;;;;;;23.21;100.00;99826.69;7400173;19;20021;-53
2023/09/09 01:03:24;;;;;;;7.45;1.58;;;;;;;22.77;100.00;99833.72;7397806;19;20014;-53
2023/09/09 01:05:51;;;;;;;4.10;1.38;;;;;;;24.57;100.00;99823.91;7402184;19;20454;-53
2023/09/09 01:08:27;;;;;;;2.50;1.27;;;;;;;34.67;92.18;99812.34;7398853;19;20011;-53
2023/09/09 01:10:55;;;;;;;8.25;2.55;;;;;;;36.32;77.66;99808.59;7398128;19;20035;-53
2023/09/09 01:13:23;;;;;;;3.60;2.17;;;;;;;37.78;67.84;99803.72;7398140;19;20014;-53
2023/09/09 01:15:50;;;;;;;5.38;2.10;;;;;;;35.04;70.01;99814.94;7399334;19;20018;-53
2023/09/09 01:18:17;;;;;;;4.68;1.98;;;;;;;24.65;100.00;99827.47;7397622;19;20030;-53
2023/09/09 01:20:50;;;;;;;2.30;1.35;;;;;;;32.89;100.00;99824.97;7397511;19;20462;-53
2023/09/09 01:23:16;;;;;;;1.65;1.20;;;;;;;33.94;79.59;99827.97;7395760;19;20022;-53
2023/09/09 01:25:43;;;;;;;3.17;1.77;;;;;;;23.72;100.00;99830.22;7400332;19;20010;-53
2023/09/09 01:28:09;;;;;;;1.90;1.17;;;;;;;33.14;99.23;99820.59;7394533;19;20367;-53
2023/09/09 01:30:35;;;;;;;3.30;1.10;;;;;;;36.56;76.55;99820.53;7400009;19;20010;-53
2023/09/09 01:33:02;;;;;;;11.15;1.33;;;;;;;37.09;70.11;99812.63;7395425;19;20018;-53
2023/09/09 01:35:28;;;;;;;3.88;1.35;;;;;;;37.25;67.74;99815.44;7399793;19;20018;-53
2023/09/09 01:37:54;;;;;;;4.47;2.50;;;;;;;37.94;63.98;99807.25;7396084;19;20014;-53
2023/09/09 01:40:21;;;;;;;1.10;0.70;;;;;;;38.59;60.67;99810.31;7393459;19;20030;-53
2023/09/09 01:42:49;;;;;;;5.50;1.52;;;;;;;38.93;57.83;99808.59;7396464;19;20019;-53
2023/09/09 01:45:16;;;;;;;2.15;0.88;;;;;;;39.07;56.38;99808.31;7397197;19;20029;-53
2023/09/09 01:47:43;;;;;;;5.20;1.45;;;;;;;39.35;54.85;99797.56;7394501;19;20021;-53
2023/09/09 01:50:09;;;;;;;3.88;1.58;;;;;;;39.46;53.77;99798.63;7395224;19;20477;-53
2023/09/09 01:52:35;;;;;;;4.57;1.45;;;;;;;39.36;53.36;99802.72;7395298;19;20015;-53
2023/09/09 01:55:02;;;;;;;2.78;1.23;;;;;;;39.84;51.90;99800.53;7397883;19;20363;-53
2023/09/09 01:57:29;;;;;;;10.55;2.50;;;;;;;39.55;51.96;99795.25;7395542;19;20011;-54
2023/09/09 01:59:56;;;;;;;7.55;2.40;;;;;;;39.69;51.05;99792.81;7395178;19;20010;-53
2023/09/09 02:02:22;;;;;;;4.05;1.10;;;;;;;39.58;50.50;99796.84;7394349;19;20007;-53
2023/09/09 02:04:49;;;;;;;4.47;1.67;;;;;;;39.23;50.57;99800.84;7397152;19;20052;-53
2023/09/09 02:07:15;;;;;;;5.43;1.90;;;;;;;39.04;50.54;99798.00;7396027;19;20070;-53
2023/09/09 02:09:45;;;;;;;3.47;1.35;;;;;;;38.88;50.72;99791.66;7395809;19;20014;-53
2023/09/09 02:12:11;;;;;;;3.83;1.15;;;;;;;38.83;50.97;99801.69;7395333;19;20011;-53
2023/09/09 02:14:38;;;;;;;1.38;1.27;;;;;;;38.87;50.42;99801.81;7395312;19;20010;-53
2023/09/09 02:17:04;;;;;;;1.85;1.20;;;;;;;38.80;49.64;99797.22;7397738;19;20376;-51
2023/09/09 02:19:30;;;;;;;2.15;0.80;;;;;;;38.35;50.57;99792.78;7394099;19;20569;-52
2023/09/09 02:21:56;;;;;;;2.55;1.38;;;;;;;38.23;50.99;99785.72;7394009;19;20014;-52
2023/09/09 02:24:23;;;;;;;6.50;1.88;;;;;;;38.01;50.65;99796.59;7395964;19;20014;-52
2023/09/09 02:26:49;;;;;;;2.58;1.45;;;;;;;38.50;50.04;99788.94;7394143;19;20346;-52
2023/09/09 02:29:15;;;;;;;2.88;1.05;;;;;;;38.68;49.06;99795.38;7394484;19;20030;-52
2023/09/09 02:31:41;;;;;;;5.57;1.10;;;;;;;38.92;48.40;99785.97;7395246;19;20365;-52
2023/09/09 02:34:07;;;;;;;4.40;1.63;;;;;;;39.25;47.54;99789.25;7394876;19;20018;-52
2023/09/09 02:36:33;;;;;;;6.38;1.70;;;;;;;39.27;47.13;99785.66;7394633;19;20044;-52
2023/09/09 02:38:59;;;;;;;4.63;1.63;;;;;;;39.27;47.10;99779.81;7393529;19;20355;-52
2023/09/09 02:41:26;;;;;;;1.98;1.33;;;;;;;38.94;47.05;99783.13;7394252;19;20049;-52
2023/09/09 02:43:52;;;;;;;2.40;1.38;;;;;;;38.81;47.32;99784.16;7394883;19;20467;-51
2023/09/09 02:46:20;;;;;;;2.50;0.80;;;;;;;38.92;46.81;99783.78;7396971;19;20095;-52
2023/09/09 02:48:46;;;;;;;2.80;1.33;;;;;;;38.72;47.08;99779.47;7392692;19;20029;-51
2023/09/09 02:51:13;;;;;;;2.88;0.90;;;;;;;38.37;47.52;99786.28;7394725;19;20010;-52
2023/09/09 02:53:39;;;;;;;3.63;1.27;;;;;;;38.20;47.33;99784.94;7393363;19;20019;-51
2023/09/09 02:56:05;;;;;;;0.65;0.65;;;;;;;38.27;47.25;99777.91;7397074;19;20015;-52
2023/09/09 02:58:31;;;;;;;2.20;0.93;;;;;;;38.19;47.58;99774.69;7392736;19;20014;-52
2023/09/09 03:01:05;;;;;;;2.00;1.25;;;;;;;38.26;47.41;99776.44;7397322;19;20372;-52
2023/09/09 03:03:32;;;;;;;5.43;1.80;;;;;;;38.66;46.06;99777.09;7392166;19;20092;-52
2023/09/09 03:06:00;;;;;;;1.13;1.00;;;;;;;38.42;46.29;99777.00;7396017;19;20015;-52
2023/09/09 03:08:27;;;;;;;1.92;0.90;;;;;;;38.47;46.21;99766.22;7392102;19;20487;-52
2023/09/09 03:10:53;;;;;;;1.13;0.70;;;;;;;38.59;46.15;99772.47;7394055;19;20044;-51
2023/09/09 03:13:20;;;;;;;2.60;0.90;;;;;;;38.63;46.09;99773.38;7394874;19;20018;-51
2023/09/09 03:15:46;;;;;;;3.08;1.65;;;;;;;38.68;46.17;99775.00;7394778;19;20078;-51
2023/09/09 03:18:13;;;;;;;1.85;1.13;;;;;;;38.65;45.97;99773.44;7391414;19;20014;-52
2023/09/09 03:20:39;;;;;;;3.83;1.35;;;;;;;38.62;46.14;99771.88;7391772;19;20022;-51
2023/09/09 03:23:06;;;;;;;5.35;1.58;;;;;;;38.94;45.59;99771.47;7392756;19;20036;-51
2023/09/09 03:25:33;;;;;;;5.22;2.03;;;;;;;38.96;45.60;99771.53;7394728;19;20048;-51
2023/09/09 03:27:59;;;;;;;3.67;0.93;;;;;;;38.76;45.60;99765.03;7393040;19;20022;-51
2023/09/09 03:30:25;;;;;;;2.58;1.17;;;;;;;38.52;46.49;99768.63;7394652;19;20011;-51
2023/09/09 03:32:52;;;;;;;1.38;1.13;;;;;;;38.95;45.81;99773.69;7393718;19;20015;-51
2023/09/09 03:35:18;;;;;;;3.25;1.55;;;;;;;38.92;45.62;99775.03;7393491;19;20003;-52
2023/09/09 03:37:44;;;;;;;4.63;1.27;;;;;;;39.08;45.46;99771.91;7391977;19;20471;-51
2023/09/09 03:40:11;;;;;;;5.32;1.65;;;;;;;39.29;44.92;99765.31;7390786;19;20031;-52
2023/09/09 03:42:38;;;;;;;3.00;1.75;;;;;;;39.38;44.80;99767.03;7391312;19;20471;-51
2023/09/09 03:45:06;;;;;;;1.23;1.10;;;;;;;39.22;45.29;99764.38;7393015;19;20020;-51
2023/09/09 03:47:32;;;;;;;6.50;1.33;;;;;;;39.22;45.32;99766.56;7392990;19;20018;-51
2023/09/09 03:49:58;;;;;;;5.07;1.25;;;;;;;39.30;44.61;99767.56;7390946;19;20014;-51
2023/09/09 03:52:25;;;;;;;2.28;1.25;;;;;;;39.37;44.55;99768.50;7392080;19;20046;-52
2023/09/09 03:54:51;;;;;;;4.10;1.77;;;;;;;39.47;44.66;99768.78;7393727;19;20021;-52
2023/09/09 03:57:17;;;;;;;5.63;1.48;;;;;;;39.34;44.26;99773.50;7391969;19;20025;-52
2023/09/09 03:59:43;;;;;;;3.28;1.33;;;;;;;39.30;44.43;99773.38;7389874;19;20018;-52
2023/09/09 04:02:10;;;;;;;2.97;1.60;;;;;;;39.19;44.33;99774.50;7391571;19;20022;-52
2023/09/09 04:04:36;;;;;;;5.75;1.17;;;;;;;39.36;44.52;99769.91;7393234;19;20017;-52
2023/09/09 04:07:05;;;;;;;3.05;1.10;;;;;;;39.23;44.35;99774.63;7395978;19;20082;-52
2023/09/09 04:09:40;;;;;;;1.85;1.30;;;;;;;39.30;44.24;99772.63;7391009;19;20091;-52
2023/09/09 04:12:10;;;;;;;3.63;1.30;;;;;;;39.22;44.44;99775.31;7389770;19;20010;-51
2023/09/09 04:14:38;;;;;;;9.90;1.52;;;;;;;39.18;44.17;99775.91;7395533;19;20015;-51
2023/09/09 04:17:05;;;;;;;4.95;2.05;;;;;;;39.11;44.34;99770.56;7402517;19;20038;-51
2023/09/09 04:19:32;;;;;;;1.80;1.10;;;;;;;39.15;44.00;99770.72;7396845;19;20082;-52
2023/09/09 04:21:58;;;;;;;3.28;1.63;;;;;;;39.31;43.88;99768.31;7396844;19;20022;-51
2023/09/09 04:24:25;;;;;;;2.75;1.50;;;;;;;39.36;43.34;99772.81;7398249;19;20102;-52
2023/09/09 04:26:51;;;;;;;1.20;0.85;;;;;;;39.34;43.65;99772.75;7401395;19;20010;-51
2023/09/09 04:29:17;;;;;;;3.08;2.05;;;;;;;39.16;44.03;99772.19;7400426;19;20597;-51
2023/09/09 04:31:43;;;;;;;2.03;0.90;;;;;;;39.07;43.87;99767.53;7397262;19;20007;-51
2023/09/09 04:34:10;;;;;;;2.58;0.77;;;;;;;39.07;44.24;99770.44;7397774;19;20015;-51
2023/09/09 04:36:37;;;;;;;4.85;1.15;;;;;;;39.07;43.95;99767.53;7398729;19;20035;-51
2023/09/09 04:39:03;;;;;;;3.05;0.95;;;;;;;39.52;43.44;99770.41;7396807;19;20010;-51
2023/09/09 04:41:29;;;;;;;3.90;1.70;;;;;;;39.66;42.91;99773.75;7397184;19;20014;-52
2023/09/09 04:43:55;;;;;;;4.05;1.90;;;;;;;39.85;42.99;99767.00;7396973;19;20011;-51
2023/09/09 04:46:22;;;;;;;5.18;1.52;;;;;;;40.05;42.75;99779.28;7396518;19;20021;-52
2023/09/09 04:48:52;;;;;;;1.02;0.77;;;;;;;40.24;42.23;99776.88;7398180;19;20029;-51
2023/09/09 04:51:18;;;;;;;4.30;1.10;;;;;;;40.28;42.05;99776.97;7399157;19;20010;-52
2023/09/09 04:53:44;;;;;;;2.63;0.85;;;;;;;40.37;41.49;99772.84;7398908;19;20014;-51
2023/09/09 04:56:10;;;;;;;4.28;1.40;;;;;;;40.47;41.57;99776.03;7402054;19;20010;-52
2023/09/09 04:58:37;;;;;;;3.75;1.35;;;;;;;40.40;41.50;99778.03;7396244;19;20018;-53
2023/09/09 05:01:04;;;;;;;9.18;2.25;;;;;;;40.52;41.37;99772.53;7397561;19;20050;-52
2023/09/09 05:03:30;;;;;;;3.55;0.93;;;;;;;40.48;41.13;99778.25;7396690;19;20015;-52
2023/09/09 05:05:56;;;;;;;4.50;1.17;;;;;;;40.49;41.37;99782.69;7399548;19;20428;-52
2023/09/09 05:08:22;;;;;;;11.77;1.73;;;;;;;40.45;41.29;99773.81;7397557;19;20014;-52
2023/09/09 05:10:49;;;;;;;5.13;1.92;;;;;;;40.45;41.02;99773.06;7395530;19;20028;-52
2023/09/09 05:13:15;;;;;;;3.53;1.00;;;;;;;40.43;41.04;99778.84;7396849;19;20018;-52
2023/09/09 05:15:41;;;;;;;8.23;1.52;;;;;;;40.27;41.44;99776.22;7397644;19;20027;-51
2023/09/09 05:18:07;;;;;;;7.50;1.63;;;;;;;40.09;41.11;99779.38;7395571;19;20021;-52
2023/09/09 05:20:34;;;;;;;3.00;0.90;;;;;;;40.02;41.23;99774.84;7393781;19;20372;-52
2023/09/09 05:23:00;;;;;;;2.80;1.75;;;;;;;39.89;41.34;99772.22;7396003;19;20465;-52
2023/09/09 05:25:26;;;;;;;3.53;1.00;;;;;;;39.91;41.14;99775.19;7398046;19;20010;-52
2023/09/09 05:27:52;;;;;;;2.55;1.45;;;;;;;39.85;41.68;99781.59;7396578;19;20015;-51
2023/09/09 05:30:19;;;;;;;5.30;2.88;;;;;;;39.75;41.04;99784.22;7397895;19;20014;-52
2023/09/09 05:32:45;;;;;;;2.25;1.10;;;;;;;39.60;41.30;99779.41;7395974;19;20021;-51
2023/09/09 05:35:11;;;;;;;3.30;1.20;;;;;;;39.67;41.27;99786.16;7397112;19;20018;-52
2023/09/09 05:37:39;;;;;;;6.22;1.77;;;;;;;39.59;41.23;99791.75;7396663;19;20021;-52
2023/09/09 05:40:06;;;;;;;4.45;1.58;;;;;;;39.47;41.41;99795.03;7395112;19;20011;-52
2023/09/09 05:42:32;;;;;;;2.55;1.50;;;;;;;39.49;41.13;99789.25;7394018;19;20014;-52
2023/09/09 05:44:59;;;;;;;2.38;1.25;;;;;;;39.39;41.37;99786.03;7396346;19;20011;-52
2023/09/09 05:47:25;;;;;;;1.98;0.60;;;;;;;39.53;41.06;99783.53;7398954;19;20021;-52
2023/09/09 05:49:52;;;;;;;4.88;1.33;;;;;;;39.56;40.99;99788.03;7394654;19;20482;-52
2023/09/09 05:52:18;;;;;;;4.45;1.88;;;;;;;39.83;40.70;99784.44;7396389;19;20018;-52
2023/09/09 05:54:44;;;;;;;2.25;1.20;;;;;;;39.99;40.08;99784.19;7398066;19;20011;-52
2023/09/09 05:57:11;;;;;;;5.78;1.90;;;;;;;40.17;40.51;99781.03;7394748;19;20019;-52
2023/09/09 05:59:38;;;;;;;4.22;1.67;;;;;;;40.26;40.35;99776.91;7395168;19;20014;-52
2023/09/09 06:02:05;;;;;;;11.35;1.58;;;;;;;40.20;40.71;99785.50;7393702;19;20014;-52
2023/09/09 06:04:32;;;;;;;3.70;1.45;;;;;;;40.17;40.32;99784.72;7395524;19;20022;-52
2023/09/09 06:06:58;;;;;;;3.30;1.33;;;;;;;40.11;40.57;99785.28;7394665;19;20034;-52
2023/09/09 06:09:24;;;;;;;4.30;1.80;;;;;;;40.26;40.19;99780.59;7393763;19;20348;-52
2023/09/09 06:11:51;;;;;;;3.15;1.40;;;;;;;40.41;40.07;99778.81;7394119;19;20029;-52
2023/09/09 06:14:17;;;;;;;3.47;1.90;;;;;;;40.36;40.03;99777.19;7393578;19;20031;-52
2023/09/09 06:16:43;;;;;;;2.75;1.52;;;;;;;40.43;40.01;99781.78;7395815;19;20033;-51
2023/09/09 06:19:10;;;;;;;4.60;1.25;;;;;;;40.71;39.76;99779.56;7391994;19;20014;-52
2023/09/09 06:21:36;;;;;;;2.65;1.80;;;;;;;40.67;39.52;99776.56;7392469;19;20052;-51
2023/09/09 06:24:03;;;;;;;5.50;1.77;;;;;;;40.64;39.69;99781.59;7394513;19;20126;-52
2023/09/09 06:26:32;;;;;;;2.47;0.95;;;;;;;40.57;39.86;99785.78;7398035;19;20007;-52
2023/09/09 06:28:59;;;;;;;6.20;1.73;;;;;;;40.63;40.10;99782.31;7393429;19;20409;-52
2023/09/09 06:31:25;;;;;;;7.25;2.15;;;;;;;40.78;40.03;99784.13;7392937;19;20662;-52
2023/09/09 06:33:52;;;;;;;7.57;1.90;;;;;;;40.85;39.77;99785.78;7395623;19;20461;-51
2023/09/09 06:36:22;;;;;;;1.73;0.68;;;;;;;41.00;40.29;99781.75;7395614;19;20011;-52
2023/09/09 06:38:49;;;;;;;1.38;0.98;;;;;;;40.63;40.10;99782.31;7392689;19;20014;-52
2023/09/09 06:41:15;;;;;;;2.15;1.45;;;;;;;40.76;40.05;99781.19;7394174;19;20742;-52
2023/09/09 06:43:43;;;;;;;3.10;1.17;;;;;;;40.79;39.72;99795.13;7394187;19;20018;-51
2023/09/09 06:46:09;;;;;;;2.15;0.95;;;;;;;38.09;42.56;99797.63;7397293;19;20018;-52
2023/09/09 06:48:35;;;;;;;2.50;0.82;;;;;;;40.41;40.48;99802.16;7394584;19;20018;-51
2023/09/09 06:51:02;;;;;;;8.02;1.27;;;;;;;40.46;40.79;99809.59;7393751;19;20010;-51
2023/09/09 06:53:28;;;;;;;4.03;1.10;;;;;;;40.44;41.44;99812.44;7392659;19;20026;-51
2023/09/09 06:55:55;;;;;;;3.80;1.42;;;;;;;40.97;41.36;99820.41;7398024;19;20050;-52
2023/09/09 06:58:21;;;;;;;2.60;1.17;;;;;;;27.00;100.00;99835.81;7394406;19;20027;-51
2023/09/09 07:00:51;;;;;;;5.35;1.92;;;;;;;33.96;71.83;99819.41;7396403;19;20015;-52
2023/09/09 07:03:20;;;;;;;2.65;1.27;;;;;;;39.31;59.95;99817.84;7393870;19;20669;-52
2023/09/09 07:05:47;;;;;;;3.17;1.77;;;;;;;26.37;100.00;99844.13;7394900;19;20014;-51
2023/09/09 07:08:13;;;;;;;6.38;1.52;;;;;;;24.64;100.00;99837.38;7393933;19;20035;-52
2023/09/09 07:10:50;;;;;;;4.00;1.50;;;;;;;24.03;100.00;99837.44;7392529;19;20011;-52
2023/09/09 07:13:17;;;;;;;7.30;2.70;;;;;;;23.55;100.00;99849.16;7393205;19;20351;-52
2023/09/09 07:15:43;;;;;;;5.18;1.90;;;;;;;29.11;100.00;99840.88;7395909;19;20514;-52
2023/09/09 07:18:10;;;;;;;2.83;1.40;;;;;;;37.02;81.22;99831.22;7393296;19;20015;-52
2023/09/09 07:20:36;;;;;;;5.90;2.00;;;;;;;39.45;66.84;99827.03;7390751;19;20010;-51
2023/09/09 07:23:02;;;;;;;3.80;1.02;;;;;;;41.06;57.88;99834.53;7392953;19;20010;-52
2023/09/09 07:25:29;;;;;;;6.60;1.33;;;;;;;41.14;55.92;99834.72;7393810;19;20347;-52
2023/09/09 07:27:55;;;;;;;1.75;1.05;;;;;;;41.91;52.43;99830.66;7393499;19;20038;-52
2023/09/09 07:30:21;;;;;;;4.70;1.88;;;;;;;42.22;50.65;99818.88;7396677;19;20015;-52
2023/09/09 07:32:47;;;;;;;3.10;1.42;;;;;;;42.64;49.07;99821.88;7392811;19;20018;-52
2023/09/09 07:35:13;;;;;;;3.35;2.10;;;;;;;42.94;47.77;99815.81;7395829;19;20027;-52
2023/09/09 07:37:39;;;;;;;4.68;1.77;;;;;;;43.13;46.56;99816.81;7392447;19;20459;-52
2023/09/09 07:40:06;;;;;;;4.32;1.98;;;;;;;43.03;46.46;99822.53;7391509;19;20475;-52
2023/09/09 07:42:32;;;;;;;8.70;2.38;;;;;;;43.80;44.85;99821.50;7392136;19;20011;-52
2023/09/09 07:44:58;;;;;;;7.88;2.58;;;;;;;43.42;44.65;99819.50;7392758;19;20014;-52
2023/09/09 07:47:25;;;;;;;3.60;1.58;;;;;;;43.76;43.60;99815.56;7392469;19;20019;-52
2023/09/09 07:49:51;;;;;;;7.00;2.58;;;;;;;43.65;43.42;99818.38;7399426;19;20082;-52
2023/09/09 07:52:17;;;;;;;6.25;1.70;;;;;;;43.66;43.72;99819.13;7399822;19;20014;-52
2023/09/09 07:54:43;;;;;;;5.25;2.42;;;;;;;43.62;43.62;99825.63;7401526;19;20007;-51
2023/09/09 07:57:09;;;;;;;3.20;1.88;;;;;;;43.60;43.95;99810.19;7400362;19;20082;-52
2023/09/09 07:59:38;;;;;;;5.38;2.40;;;;;;;43.25;44.42;99811.16;7399640;19;20030;-52
2023/09/09 08:02:05;;;;;;;6.90;1.80;;;;;;;38.83;58.68;99819.16;7399256;19;20049;-52
2023/09/09 08:04:31;;;;;;;8.63;2.72;;;;;;;36.43;75.35;99818.50;7400721;19;20009;-52
2023/09/09 08:06:57;;;;;;;4.30;1.85;;;;;;;31.88;93.03;99826.03;7399445;19;20034;-52
2023/09/09 08:09:23;;;;;;;8.90;2.55;;;;;;;26.95;100.00;99834.75;7399465;19;20033;-52
2023/09/09 08:11:49;;;;;;;6.60;2.67;;;;;;;25.74;100.00;99837.22;7399108;19;20372;-52
2023/09/09 08:14:17;;;;;;;11.18;3.58;;;;;;;29.53;100.00;99828.91;7399394;19;20038;-52
2023/09/09 08:16:44;;;;;;;5.63;2.15;;;;;;;26.42;100.00;99837.41;7400795;19;20010;-51
2023/09/09 08:19:10;;;;;;;11.70;2.78;;;;;;;29.13;100.00;99832.44;7397841;19;20015;-52
2023/09/09 08:21:36;;;;;;;3.17;1.90;;;;;;;25.41;100.00;99842.94;7397962;19;20006;-52
2023/09/09 08:24:02;;;;;;;7.78;2.83;;;;;;;24.84;100.00;99839.19;7398399;19;20015;-52
2023/09/09 08:26:29;;;;;;;3.00;1.55;;;;;;;24.19;100.00;99843.16;7403373;19;20014;-52
2023/09/09 08:28:55;;;;;;;5.78;2.53;;;;;;;24.55;100.00;99840.78;7400317;19;20392;-52
2023/09/09 08:31:21;;;;;;;5.53;2.17;;;;;;;24.62;100.00;99840.75;7398018;19;20015;-51
2023/09/09 08:33:47;;;;;;;9.43;2.88;;;;;;;24.70;100.00;99843.59;7398517;19;20010;-51
2023/09/09 08:36:15;;;;;;;5.78;2.13;;;;;;;24.75;100.00;99840.56;7402306;19;20017;-52
2023/09/09 08:38:41;;;;;;;4.32;2.42;;;;;;;24.77;100.00;99835.06;7397713;19;20362;-51
2023/09/09 08:41:25;;;;;;;7.90;3.00;;;;;;;24.85;100.00;99835.03;7397862;19;20020;-52
2023/09/09 08:44:11;;;;;;;4.18;2.00;;;;;;;24.89;100.00;99829.69;7397965;19;20707;-52
2023/09/09 08:46:38;;;;;;;4.85;2.03;;;;;;;24.94;100.00;99837.28;7397936;19;20019;-52
2023/09/09 08:49:06;;;;;;;9.25;2.50;;;;;;;24.99;100.00;99844.88;7398788;19;20014;-52
2023/09/09 08:51:46;;;;;;;5.45;1.95;;;;;;;35.85;100.00;99836.16;7397095;19;20018;-52
2023/09/09 08:59:42;;;;;;;4.20;1.90;;;;;;;25.82;100.00;99843.63;7422019;19;20360;-81
2023/09/09 09:02:11;;;;;;;6.85;1.67;;;;;;;37.35;100.00;99839.13;7427807;19;20013;-81
2023/09/09 09:04:38;;;;;;;3.78;1.60;;;;;;;27.20;100.00;99853.88;7422407;19;20472;-82
2023/09/09 09:07:05;;;;;;;5.32;1.73;;;;;;;26.16;100.00;99855.19;7429994;19;20465;-82
2023/09/09 09:09:31;;;;;;;3.90;1.88;;;;;;;25.97;100.00;99854.91;7427147;19;20374;-82
2023/09/09 09:12:00;;;;;;;4.07;1.85;;;;;;;25.96;100.00;99847.72;7427160;19;20014;-82
2023/09/09 09:14:26;;;;;;;8.82;1.33;;;;;;;26.00;100.00;99848.81;7425099;19;20021;-82
2023/09/09 09:16:54;;;;;;;2.83;1.08;;;;;;;26.07;100.00;99852.94;7426557;19;20025;-81
2023/09/09 09:19:29;;;;;;;5.50;1.80;;;;;;;26.07;100.00;99850.09;7426059;19;20026;-82
2023/09/09 09:21:56;;;;;;;3.22;1.52;;;;;;;26.13;100.00;99844.94;7425544;19;20021;-82
2023/09/09 09:24:25;;;;;;;5.35;1.50;;;;;;;26.14;100.00;99843.59;7424006;19;20014;-80
2023/09/09 09:26:51;;;;;;;4.40;1.52;;;;;;;26.19;100.00;99854.00;7426109;19;20484;-82
2023/09/09 09:29:17;;;;;;;3.00;0.77;;;;;;;26.12;100.00;99854.81;7427210;19;20014;-81
2023/09/09 09:31:51;;;;;;;3.42;0.70;;;;;;;31.56;100.00;99849.91;7424047;19;20421;-81
2023/09/09 09:34:32;;;;;;;0.80;0.52;;;;;;;34.31;100.00;99845.91;7426892;19;20025;-81
2023/09/09 09:36:58;;;;;;;2.80;1.13;;;;;;;27.28;100.00;99851.66;7426167;19;20018;-81
2023/09/09 09:39:33;;;;;;;4.75;1.38;;;;;;;30.85;100.00;99853.13;7422153;19;20354;-83
2023/09/09 09:42:00;;;;;;;2.17;1.17;;;;;;;28.24;100.00;99852.91;7426208;19;20014;-82
2023/09/09 09:44:26;;;;;;;2.88;1.65;;;;;;;27.05;100.00;99852.72;7422658;19;20039;-81
2023/09/09 09:47:01;;;;;;;1.60;1.00;;;;;;;27.07;100.00;99859.94;7426685;19;20025;-81
2023/09/09 09:49:38;;;;;;;1.73;1.15;;;;;;;27.24;100.00;99868.50;7425514;19;20265;-82
2023/09/09 09:52:06;;;;;;;7.40;1.50;;;;;;;26.68;100.00;99865.31;7426020;19;20022;-80
2023/09/09 09:54:34;;;;;;;1.42;0.50;;;;;;;27.33;100.00;99870.66;7426603;19;20587;-80
2023/09/09 10:57:41;;;;;;;4.78;0.85;;;;;;;32.82;100.00;99854.84;7401328;19;20010;-58
2023/09/09 11:00:27;;;;;;;7.80;1.35;;;;;;;42.04;69.38;99844.09;7399501;19;20017;-58
2023/09/09 11:03:26;;;;;;;2.95;1.13;;;;;;;45.57;61.20;99835.75;7398462;19;20478;-52
2023/09/09 11:14:52;;;;;;;;;;;;;;;;;;;;;
2023/09/09 11:18:59;;;;;;;;;;;;;;;;;;;;;
2023/09/09 11:21:55;;;;;;;4.22;1.02;;;;;;;52.04;32.10;99819.69;7396174;19;20114;-52
2023/09/09 11:24:39;;;;;;;9.85;0.85;;;;;;;52.33;30.94;99822.75;7395142;19;20078;-52
2023/09/09 11:27:29;;;;;;;3.80;0.50;;;;;;;52.03;30.85;99827.13;7399454;19;20014;-53
2023/09/09 11:31:03;;;;;;;;;;;;;;;;;;;;;
2023/09/09 11:37:44;;;;;;;4.65;0.50;;;;;;;30.10;100.00;99838.66;7392387;19;20017;-58
2023/09/09 11:40:11;;;;;;;2.60;1.00;;;;;;;33.03;100.00;99827.22;7395076;19;20014;-58
2023/09/09 11:42:50;;;;;;;2.83;1.05;;;;;;;48.35;43.76;99812.16;7394760;19;20011;-58
2023/09/09 11:45:19;;;;;;;3.72;1.42;;;;;;;50.84;36.10;99804.88;7394080;19;20011;-59
2023/09/09 11:47:47;;;;;;;1.03;0.40;;;;;;;51.64;32.05;99799.00;7393828;19;20488;-58
2023/09/09 11:50:14;;;;;;;4.40;0.63;;;;;;;51.75;31.57;99800.22;7394283;19;20474;-58
2023/09/09 11:52:40;;;;;;;5.05;0.65;;;;;;;51.03;30.88;99793.47;7393829;19;20227;-58
2023/09/09 11:55:07;;;;;;;1.00;0.50;;;;;;;51.11;30.06;99805.94;7395455;19;20362;-58
2023/09/09 11:57:33;;;;;;;6.45;0.98;;;;;;;50.78;31.33;99793.88;7398029;19;20010;-58
2023/09/09 12:00:00;;;;;;;3.35;0.68;;;;;;;50.49;31.75;99798.06;7394173;19;20053;-58
2023/09/09 12:02:27;;;;;;;3.53;1.05;;;;;;;50.56;30.96;99796.47;7393723;19;20006;-58
2023/09/09 12:05:02;;;;;;;11.68;1.20;;;;;;;50.79;31.42;99800.53;7393618;19;20462;-59
2023/09/09 12:07:30;;;;;;;1.92;0.90;;;;;;;50.88;30.04;99801.88;7398739;19;20019;-59
2023/09/09 12:09:59;;;;;;;2.00;0.60;;;;;;;50.47;30.77;99804.00;7393748;19;20024;-59
2023/09/09 12:12:27;;;;;;;5.45;0.52;;;;;;;49.71;31.00;99808.75;7393589;19;20011;-58
2023/09/09 12:14:56;;;;;;;1.48;0.30;;;;;;;50.54;29.91;99803.19;7393691;19;20010;-58
2023/09/09 12:17:22;;;;;;;1.90;0.70;;;;;;;46.64;36.61;99809.59;7397162;19;20014;-58
2023/09/09 12:19:56;;;;;;;2.03;0.63;;;;;;;49.69;32.47;99800.59;7393053;19;20014;-58
2023/09/09 12:22:33;;;;;;;2.35;0.90;;;;;;;48.46;32.51;99801.78;7393924;19;20014;-58
2023/09/09 12:25:00;;;;;;;0.77;0.55;;;;;;;44.80;34.99;99810.16;7393889;19;20017;-59
2023/09/09 12:27:43;;;;;;;2.42;0.85;;;;;;;49.38;31.04;99802.47;7396699;19;20014;-59
2023/09/09 12:30:31;;;;;;;4.95;0.80;;;;;;;34.52;59.59;99829.63;7394958;19;20443;-58
2023/09/09 12:33:47;;;;;;;7.25;1.13;;;;;;;31.42;100.00;99827.47;7390256;19;20018;-57
2023/09/09 12:36:25;;;;;;;3.60;0.95;;;;;;;47.81;40.65;99800.63;7391697;19;20036;-56
2023/09/09 12:38:53;;;;;;;2.00;0.85;;;;;;;49.75;34.64;99797.56;7390770;19;20007;-57
2023/09/09 13:03:59;;;;;;;1.00;0.50;;;;;;;51.21;30.24;99799.81;7399470;19;20576;-57
2023/09/09 13:06:30;;;;;;;4.65;0.43;;;;;;;50.38;30.17;99802.69;7391385;19;20019;-58
2023/09/09 13:09:23;;;;;;;0.95;0.25;;;;;;;51.91;28.99;99802.88;7395286;19;20170;-58
2023/09/09 14:19:23;;;;;;;1.50;0.22;;;;;;;43.08;40.99;99762.53;7398204;19;20002;-56
2023/09/09 14:29:51;;;;;;;1.52;0.40;;;;;;;43.23;41.01;99767.16;7396470;19;20560;-58
2023/09/09 14:32:18;;;;;;;5.30;0.63;;;;;;;42.16;42.29;99768.25;7402183;19;20010;-57
2023/09/09 14:34:44;;;;;;;2.67;0.30;;;;;;;42.63;40.11;99767.66;7395622;19;20454;-58
2023/09/09 14:37:20;;;;;;;3.95;0.52;;;;;;;43.08;39.78;99763.25;7397474;19;20006;-57
2023/09/09 14:40:17;;;;;;;4.47;0.88;;;;;;;43.31;38.80;99762.16;7393519;19;20083;-58